sensor_id;sensor_type;location;lat;lon;timestamp;P1;durP1;ratioP1;P2;durP2;ratioP2
14116;SDS011;7137;51.436;6.544;2023-03-14T00:02:44;4.67;;;1.50;;
14116;SDS011;7137;51.436;6.544;2023-03-14T00:05:46;7.83;;;1.77;;
14116;SDS011;7137;51.436;6.544;2023-03-14T00:08:47;5.50;;;1.80;;
14116;SDS011;7137;51.436;6.544;2023-03-14T00:11:51;5.60;;;1.80;;
14116;SDS011;7137;51.436;6.544;2023-03-14T00:14:53;6.13;;;1.60;;
14116;SDS011;7137;51.436;6.544;2023-03-14T00:17:54;7.33;;;1.70;;
14116;SDS011;7137;51.436;6.544;2023-03-14T00:20:57;8.70;;;1.63;;
14116;SDS011;7137;51.436;6.544;2023-03-14T00:23:59;7.57;;;1.80;;
14116;SDS011;7137;51.436;6.544;2023-03-14T00:27:02;5.70;;;1.90;;
14116;SDS011;7137;51.436;6.544;2023-03-14T00:30:04;6.23;;;1.70;;
14116;SDS011;7137;51.436;6.544;2023-03-14T00:33:07;6.23;;;1.80;;
14116;SDS011;7137;51.436;6.544;2023-03-14T00:36:10;6.23;;;1.93;;
14116;SDS011;7137;51.436;6.544;2023-03-14T00:39:13;6.80;;;1.77;;
14116;SDS011;7137;51.436;6.544;2023-03-14T00:42:16;6.70;;;1.67;;
14116;SDS011;7137;51.436;6.544;2023-03-14T00:45:18;7.37;;;1.67;;
14116;SDS011;7137;51.436;6.544;2023-03-14T00:48:19;6.13;;;1.30;;
14116;SDS011;7137;51.436;6.544;2023-03-14T00:51:21;5.17;;;1.47;;
14116;SDS011;7137;51.436;6.544;2023-03-14T00:54:23;6.67;;;1.73;;
14116;SDS011;7137;51.436;6.544;2023-03-14T00:57:26;5.23;;;1.20;;
14116;SDS011;7137;51.436;6.544;2023-03-14T01:00:27;6.37;;;1.40;;
14116;SDS011;7137;51.436;6.544;2023-03-14T01:03:29;7.23;;;1.73;;
14116;SDS011;7137;51.436;6.544;2023-03-14T01:06:30;8.10;;;1.60;;
14116;SDS011;7137;51.436;6.544;2023-03-14T01:09:32;4.37;;;1.30;;
14116;SDS011;7137;51.436;6.544;2023-03-14T01:12:35;5.40;;;1.37;;
14116;SDS011;7137;51.436;6.544;2023-03-14T01:15:37;5.93;;;1.20;;
14116;SDS011;7137;51.436;6.544;2023-03-14T01:18:39;8.10;;;1.60;;
14116;SDS011;7137;51.436;6.544;2023-03-14T01:21:43;5.93;;;1.30;;
14116;SDS011;7137;51.436;6.544;2023-03-14T01:24:45;6.83;;;1.47;;
14116;SDS011;7137;51.436;6.544;2023-03-14T01:27:48;5.17;;;1.30;;
14116;SDS011;7137;51.436;6.544;2023-03-14T01:30:50;5.10;;;1.00;;
14116;SDS011;7137;51.436;6.544;2023-03-14T01:33:51;5.43;;;1.27;;
14116;SDS011;7137;51.436;6.544;2023-03-14T01:36:53;5.43;;;1.20;;
14116;SDS011;7137;51.436;6.544;2023-03-14T01:39:54;5.30;;;1.10;;
14116;SDS011;7137;51.436;6.544;2023-03-14T01:42:58;4.93;;;1.03;;
14116;SDS011;7137;51.436;6.544;2023-03-14T01:46:17;5.80;;;1.10;;
14116;SDS011;7137;51.436;6.544;2023-03-14T01:49:24;5.40;;;1.10;;
14116;SDS011;7137;51.436;6.544;2023-03-14T01:52:30;3.60;;;0.97;;
14116;SDS011;7137;51.436;6.544;2023-03-14T01:55:36;4.03;;;1.10;;
14116;SDS011;7137;51.436;6.544;2023-03-14T01:58:39;6.63;;;1.30;;
14116;SDS011;7137;51.436;6.544;2023-03-14T02:01:46;6.10;;;1.20;;
14116;SDS011;7137;51.436;6.544;2023-03-14T02:04:49;5.67;;;1.60;;
14116;SDS011;7137;51.436;6.544;2023-03-14T02:07:52;4.20;;;1.20;;
14116;SDS011;7137;51.436;6.544;2023-03-14T02:10:56;7.43;;;1.30;;
14116;SDS011;7137;51.436;6.544;2023-03-14T02:13:59;6.87;;;1.23;;
14116;SDS011;7137;51.436;6.544;2023-03-14T02:17:00;5.60;;;1.30;;
14116;SDS011;7137;51.436;6.544;2023-03-14T02:20:07;5.37;;;1.30;;
14116;SDS011;7137;51.436;6.544;2023-03-14T02:23:20;7.73;;;1.30;;
14116;SDS011;7137;51.436;6.544;2023-03-14T02:26:33;6.77;;;1.17;;
14116;SDS011;7137;51.436;6.544;2023-03-14T02:29:43;4.77;;;1.30;;
14116;SDS011;7137;51.436;6.544;2023-03-14T02:32:52;5.13;;;1.10;;
14116;SDS011;7137;51.436;6.544;2023-03-14T02:35:59;6.93;;;1.73;;
14116;SDS011;7137;51.436;6.544;2023-03-14T02:39:05;6.20;;;1.50;;
14116;SDS011;7137;51.436;6.544;2023-03-14T02:42:13;6.43;;;1.53;;
14116;SDS011;7137;51.436;6.544;2023-03-14T02:45:35;5.90;;;1.40;;
14116;SDS011;7137;51.436;6.544;2023-03-14T02:48:41;5.47;;;1.40;;
14116;SDS011;7137;51.436;6.544;2023-03-14T02:51:45;8.03;;;1.60;;
14116;SDS011;7137;51.436;6.544;2023-03-14T02:54:47;7.00;;;1.70;;
14116;SDS011;7137;51.436;6.544;2023-03-14T02:57:49;8.10;;;1.77;;
14116;SDS011;7137;51.436;6.544;2023-03-14T03:00:52;5.73;;;1.60;;
14116;SDS011;7137;51.436;6.544;2023-03-14T03:03:54;6.10;;;1.50;;
14116;SDS011;7137;51.436;6.544;2023-03-14T03:06:56;4.63;;;1.23;;
14116;SDS011;7137;51.436;6.544;2023-03-14T03:09:57;6.13;;;1.37;;
14116;SDS011;7137;51.436;6.544;2023-03-14T03:12:59;7.03;;;1.47;;
14116;SDS011;7137;51.436;6.544;2023-03-14T03:16:02;7.13;;;1.67;;
14116;SDS011;7137;51.436;6.544;2023-03-14T03:19:04;8.77;;;1.90;;
14116;SDS011;7137;51.436;6.544;2023-03-14T03:22:06;7.20;;;1.60;;
14116;SDS011;7137;51.436;6.544;2023-03-14T03:25:08;8.13;;;1.50;;
14116;SDS011;7137;51.436;6.544;2023-03-14T03:28:10;8.60;;;1.57;;
14116;SDS011;7137;51.436;6.544;2023-03-14T03:31:12;6.93;;;1.53;;
14116;SDS011;7137;51.436;6.544;2023-03-14T03:34:14;5.87;;;1.30;;
14116;SDS011;7137;51.436;6.544;2023-03-14T03:37:16;7.00;;;1.80;;
14116;SDS011;7137;51.436;6.544;2023-03-14T03:40:18;9.37;;;1.70;;
14116;SDS011;7137;51.436;6.544;2023-03-14T03:43:20;7.63;;;1.70;;
14116;SDS011;7137;51.436;6.544;2023-03-14T03:46:23;6.83;;;1.83;;
14116;SDS011;7137;51.436;6.544;2023-03-14T03:49:28;6.63;;;1.60;;
14116;SDS011;7137;51.436;6.544;2023-03-14T03:52:31;7.27;;;1.63;;
14116;SDS011;7137;51.436;6.544;2023-03-14T03:55:32;8.67;;;1.87;;
14116;SDS011;7137;51.436;6.544;2023-03-14T03:58:35;5.80;;;1.73;;
14116;SDS011;7137;51.436;6.544;2023-03-14T04:01:40;7.67;;;1.53;;
14116;SDS011;7137;51.436;6.544;2023-03-14T04:04:41;6.90;;;1.50;;
14116;SDS011;7137;51.436;6.544;2023-03-14T04:07:43;8.90;;;1.70;;
14116;SDS011;7137;51.436;6.544;2023-03-14T04:10:44;8.90;;;1.73;;
14116;SDS011;7137;51.436;6.544;2023-03-14T04:13:46;6.57;;;1.53;;
14116;SDS011;7137;51.436;6.544;2023-03-14T04:16:49;4.77;;;1.37;;
14116;SDS011;7137;51.436;6.544;2023-03-14T04:19:50;7.37;;;1.43;;
14116;SDS011;7137;51.436;6.544;2023-03-14T04:22:53;5.17;;;1.50;;
14116;SDS011;7137;51.436;6.544;2023-03-14T04:25:55;4.87;;;1.40;;
14116;SDS011;7137;51.436;6.544;2023-03-14T04:28:56;5.17;;;1.20;;
14116;SDS011;7137;51.436;6.544;2023-03-14T04:32:00;7.33;;;1.30;;
14116;SDS011;7137;51.436;6.544;2023-03-14T04:35:01;5.47;;;1.23;;
14116;SDS011;7137;51.436;6.544;2023-03-14T04:38:03;5.03;;;1.17;;
14116;SDS011;7137;51.436;6.544;2023-03-14T04:41:04;4.47;;;1.10;;
14116;SDS011;7137;51.436;6.544;2023-03-14T04:44:06;4.43;;;1.10;;
14116;SDS011;7137;51.436;6.544;2023-03-14T04:47:09;5.60;;;1.20;;
14116;SDS011;7137;51.436;6.544;2023-03-14T04:50:11;4.07;;;0.70;;
14116;SDS011;7137;51.436;6.544;2023-03-14T04:53:12;5.30;;;0.83;;
14116;SDS011;7137;51.436;6.544;2023-03-14T04:56:14;3.23;;;1.07;;
14116;SDS011;7137;51.436;6.544;2023-03-14T04:59:16;3.33;;;0.70;;
14116;SDS011;7137;51.436;6.544;2023-03-14T05:02:18;4.03;;;0.80;;
14116;SDS011;7137;51.436;6.544;2023-03-14T05:05:20;4.50;;;0.90;;
14116;SDS011;7137;51.436;6.544;2023-03-14T05:08:22;2.37;;;0.80;;
14116;SDS011;7137;51.436;6.544;2023-03-14T05:11:23;4.17;;;0.73;;
14116;SDS011;7137;51.436;6.544;2023-03-14T05:14:25;3.00;;;0.70;;
14116;SDS011;7137;51.436;6.544;2023-03-14T05:17:28;2.80;;;0.80;;
14116;SDS011;7137;51.436;6.544;2023-03-14T05:20:30;4.30;;;0.97;;
14116;SDS011;7137;51.436;6.544;2023-03-14T05:23:31;2.13;;;0.60;;
14116;SDS011;7137;51.436;6.544;2023-03-14T05:26:33;3.60;;;0.90;;
14116;SDS011;7137;51.436;6.544;2023-03-14T05:29:35;2.07;;;0.63;;
14116;SDS011;7137;51.436;6.544;2023-03-14T05:32:37;2.67;;;0.77;;
14116;SDS011;7137;51.436;6.544;2023-03-14T05:35:40;3.87;;;0.90;;
14116;SDS011;7137;51.436;6.544;2023-03-14T05:38:42;2.33;;;0.80;;
14116;SDS011;7137;51.436;6.544;2023-03-14T05:41:44;3.77;;;0.70;;
14116;SDS011;7137;51.436;6.544;2023-03-14T05:44:45;2.37;;;0.70;;
14116;SDS011;7137;51.436;6.544;2023-03-14T05:47:48;3.10;;;0.80;;
14116;SDS011;7137;51.436;6.544;2023-03-14T05:50:53;5.70;;;1.03;;
14116;SDS011;7137;51.436;6.544;2023-03-14T05:53:55;2.43;;;0.90;;
14116;SDS011;7137;51.436;6.544;2023-03-14T05:56:57;2.73;;;0.90;;
14116;SDS011;7137;51.436;6.544;2023-03-14T05:59:58;2.97;;;1.00;;
14116;SDS011;7137;51.436;6.544;2023-03-14T06:03:01;4.30;;;1.00;;
14116;SDS011;7137;51.436;6.544;2023-03-14T06:06:03;4.10;;;1.00;;
14116;SDS011;7137;51.436;6.544;2023-03-14T06:09:05;4.70;;;1.00;;
14116;SDS011;7137;51.436;6.544;2023-03-14T06:12:07;3.13;;;0.93;;
14116;SDS011;7137;51.436;6.544;2023-03-14T06:15:09;3.27;;;1.00;;
14116;SDS011;7137;51.436;6.544;2023-03-14T06:18:12;2.00;;;0.80;;
14116;SDS011;7137;51.436;6.544;2023-03-14T06:21:15;2.43;;;1.00;;
14116;SDS011;7137;51.436;6.544;2023-03-14T06:24:16;2.20;;;0.80;;
14116;SDS011;7137;51.436;6.544;2023-03-14T06:27:18;1.67;;;1.00;;
14116;SDS011;7137;51.436;6.544;2023-03-14T06:30:19;1.77;;;0.90;;
14116;SDS011;7137;51.436;6.544;2023-03-14T06:33:22;3.03;;;1.10;;
14116;SDS011;7137;51.436;6.544;2023-03-14T06:36:24;2.20;;;1.00;;
14116;SDS011;7137;51.436;6.544;2023-03-14T06:39:26;2.00;;;0.90;;
14116;SDS011;7137;51.436;6.544;2023-03-14T06:42:29;2.07;;;1.00;;
14116;SDS011;7137;51.436;6.544;2023-03-14T06:45:30;2.17;;;1.00;;
14116;SDS011;7137;51.436;6.544;2023-03-14T06:48:33;4.37;;;1.00;;
14116;SDS011;7137;51.436;6.544;2023-03-14T06:51:35;2.70;;;1.10;;
14116;SDS011;7137;51.436;6.544;2023-03-14T06:54:36;2.20;;;1.00;;
14116;SDS011;7137;51.436;6.544;2023-03-14T06:57:38;2.80;;;1.00;;
14116;SDS011;7137;51.436;6.544;2023-03-14T07:00:39;2.27;;;1.00;;
14116;SDS011;7137;51.436;6.544;2023-03-14T07:03:42;2.47;;;1.20;;
14116;SDS011;7137;51.436;6.544;2023-03-14T07:06:44;3.83;;;1.10;;
14116;SDS011;7137;51.436;6.544;2023-03-14T07:09:47;1.97;;;0.90;;
14116;SDS011;7137;51.436;6.544;2023-03-14T07:12:49;1.87;;;1.10;;
14116;SDS011;7137;51.436;6.544;2023-03-14T07:15:50;2.40;;;1.00;;
14116;SDS011;7137;51.436;6.544;2023-03-14T07:18:53;3.33;;;1.00;;
14116;SDS011;7137;51.436;6.544;2023-03-14T07:21:55;1.70;;;1.07;;
14116;SDS011;7137;51.436;6.544;2023-03-14T07:24:57;2.83;;;1.03;;
14116;SDS011;7137;51.436;6.544;2023-03-14T07:27:58;1.77;;;1.17;;
14116;SDS011;7137;51.436;6.544;2023-03-14T07:31:01;2.17;;;1.20;;
14116;SDS011;7137;51.436;6.544;2023-03-14T07:34:04;2.03;;;1.10;;
14116;SDS011;7137;51.436;6.544;2023-03-14T07:37:05;2.80;;;1.50;;
14116;SDS011;7137;51.436;6.544;2023-03-14T07:40:07;2.73;;;1.27;;
14116;SDS011;7137;51.436;6.544;2023-03-14T07:43:14;2.27;;;1.20;;
14116;SDS011;7137;51.436;6.544;2023-03-14T07:46:16;2.33;;;1.50;;
14116;SDS011;7137;51.436;6.544;2023-03-14T07:49:20;2.30;;;1.50;;
14116;SDS011;7137;51.436;6.544;2023-03-14T07:52:22;3.37;;;1.50;;
14116;SDS011;7137;51.436;6.544;2023-03-14T07:55:24;3.63;;;1.77;;
14116;SDS011;7137;51.436;6.544;2023-03-14T07:58:25;2.00;;;1.23;;
14116;SDS011;7137;51.436;6.544;2023-03-14T08:01:27;3.13;;;1.30;;
14116;SDS011;7137;51.436;6.544;2023-03-14T08:04:30;2.50;;;1.30;;
14116;SDS011;7137;51.436;6.544;2023-03-14T08:07:31;1.83;;;1.20;;
14116;SDS011;7137;51.436;6.544;2023-03-14T08:10:34;1.90;;;1.27;;
14116;SDS011;7137;51.436;6.544;2023-03-14T08:13:36;3.60;;;2.10;;
14116;SDS011;7137;51.436;6.544;2023-03-14T08:16:39;3.57;;;2.00;;
14116;SDS011;7137;51.436;6.544;2023-03-14T08:19:42;1.67;;;1.10;;
14116;SDS011;7137;51.436;6.544;2023-03-14T08:22:43;1.73;;;1.20;;
14116;SDS011;7137;51.436;6.544;2023-03-14T08:25:45;2.33;;;1.30;;
14116;SDS011;7137;51.436;6.544;2023-03-14T08:28:51;1.73;;;1.30;;
14116;SDS011;7137;51.436;6.544;2023-03-14T08:31:53;2.87;;;1.50;;
14116;SDS011;7137;51.436;6.544;2023-03-14T08:34:56;1.67;;;1.20;;
14116;SDS011;7137;51.436;6.544;2023-03-14T08:37:57;4.57;;;2.37;;
14116;SDS011;7137;51.436;6.544;2023-03-14T08:41:00;3.40;;;1.90;;
14116;SDS011;7137;51.436;6.544;2023-03-14T08:44:03;3.33;;;1.70;;
14116;SDS011;7137;51.436;6.544;2023-03-14T08:47:05;2.50;;;1.43;;
14116;SDS011;7137;51.436;6.544;2023-03-14T08:50:09;3.23;;;1.60;;
14116;SDS011;7137;51.436;6.544;2023-03-14T08:53:11;2.97;;;1.40;;
14116;SDS011;7137;51.436;6.544;2023-03-14T08:56:13;1.73;;;0.80;;
14116;SDS011;7137;51.436;6.544;2023-03-14T08:59:15;1.40;;;0.70;;
14116;SDS011;7137;51.436;6.544;2023-03-14T09:02:18;2.57;;;0.80;;
14116;SDS011;7137;51.436;6.544;2023-03-14T09:05:21;1.17;;;0.60;;
14116;SDS011;7137;51.436;6.544;2023-03-14T09:08:22;2.47;;;0.60;;
14116;SDS011;7137;51.436;6.544;2023-03-14T09:11:24;1.07;;;0.50;;
14116;SDS011;7137;51.436;6.544;2023-03-14T09:14:25;2.17;;;0.67;;
14116;SDS011;7137;51.436;6.544;2023-03-14T09:17:27;1.83;;;0.63;;
14116;SDS011;7137;51.436;6.544;2023-03-14T09:20:30;2.13;;;0.60;;
14116;SDS011;7137;51.436;6.544;2023-03-14T09:23:31;1.80;;;0.90;;
14116;SDS011;7137;51.436;6.544;2023-03-14T09:26:33;2.20;;;0.97;;
14116;SDS011;7137;51.436;6.544;2023-03-14T09:29:35;1.30;;;1.00;;
14116;SDS011;7137;51.436;6.544;2023-03-14T09:32:36;2.10;;;1.03;;
14116;SDS011;7137;51.436;6.544;2023-03-14T09:35:39;2.97;;;1.40;;
14116;SDS011;7137;51.436;6.544;2023-03-14T09:38:41;3.37;;;1.40;;
14116;SDS011;7137;51.436;6.544;2023-03-14T09:41:43;3.07;;;1.80;;
14116;SDS011;7137;51.436;6.544;2023-03-14T09:44:50;3.87;;;2.47;;
14116;SDS011;7137;51.436;6.544;2023-03-14T09:47:55;3.93;;;2.40;;
14116;SDS011;7137;51.436;6.544;2023-03-14T09:51:01;4.30;;;2.70;;
14116;SDS011;7137;51.436;6.544;2023-03-14T09:54:08;3.87;;;2.50;;
14116;SDS011;7137;51.436;6.544;2023-03-14T09:57:25;4.27;;;2.37;;
14116;SDS011;7137;51.436;6.544;2023-03-14T10:00:29;4.00;;;2.80;;
14116;SDS011;7137;51.436;6.544;2023-03-14T10:03:33;4.97;;;3.00;;
14116;SDS011;7137;51.436;6.544;2023-03-14T10:06:37;4.33;;;2.70;;
14116;SDS011;7137;51.436;6.544;2023-03-14T10:09:38;5.67;;;2.63;;
14116;SDS011;7137;51.436;6.544;2023-03-14T10:12:40;4.27;;;2.10;;
14116;SDS011;7137;51.436;6.544;2023-03-14T10:15:42;4.27;;;1.90;;
14116;SDS011;7137;51.436;6.544;2023-03-14T10:18:49;4.07;;;2.40;;
14116;SDS011;7137;51.436;6.544;2023-03-14T10:21:53;3.97;;;1.90;;
14116;SDS011;7137;51.436;6.544;2023-03-14T10:24:56;4.03;;;1.10;;
14116;SDS011;7137;51.436;6.544;2023-03-14T10:28:01;3.33;;;0.90;;
14116;SDS011;7137;51.436;6.544;2023-03-14T10:31:03;1.70;;;0.80;;
14116;SDS011;7137;51.436;6.544;2023-03-14T10:34:05;4.37;;;1.20;;
14116;SDS011;7137;51.436;6.544;2023-03-14T10:37:16;3.53;;;1.00;;
14116;SDS011;7137;51.436;6.544;2023-03-14T10:40:23;4.60;;;1.10;;
14116;SDS011;7137;51.436;6.544;2023-03-14T10:43:31;2.60;;;0.90;;
14116;SDS011;7137;51.436;6.544;2023-03-14T10:46:34;3.47;;;1.13;;
14116;SDS011;7137;51.436;6.544;2023-03-14T10:49:36;2.20;;;0.70;;
14116;SDS011;7137;51.436;6.544;2023-03-14T10:52:39;4.30;;;0.77;;
14116;SDS011;7137;51.436;6.544;2023-03-14T10:55:49;3.40;;;0.87;;
14116;SDS011;7137;51.436;6.544;2023-03-14T10:58:51;3.33;;;0.80;;
14116;SDS011;7137;51.436;6.544;2023-03-14T11:01:57;2.60;;;0.70;;
14116;SDS011;7137;51.436;6.544;2023-03-14T11:05:06;3.87;;;1.30;;
14116;SDS011;7137;51.436;6.544;2023-03-14T11:08:20;3.93;;;0.70;;
14116;SDS011;7137;51.436;6.544;2023-03-14T11:11:26;2.53;;;0.70;;
14116;SDS011;7137;51.436;6.544;2023-03-14T11:14:31;2.30;;;0.90;;
14116;SDS011;7137;51.436;6.544;2023-03-14T11:17:38;2.97;;;0.80;;
14116;SDS011;7137;51.436;6.544;2023-03-14T11:20:47;3.90;;;0.93;;
14116;SDS011;7137;51.436;6.544;2023-03-14T11:24:01;2.80;;;0.67;;
14116;SDS011;7137;51.436;6.544;2023-03-14T11:27:20;3.57;;;0.80;;
14116;SDS011;7137;51.436;6.544;2023-03-14T11:30:24;3.03;;;0.70;;
14116;SDS011;7137;51.436;6.544;2023-03-14T11:33:35;2.73;;;0.77;;
14116;SDS011;7137;51.436;6.544;2023-03-14T11:36:39;3.33;;;0.90;;
14116;SDS011;7137;51.436;6.544;2023-03-14T11:39:47;5.90;;;1.10;;
14116;SDS011;7137;51.436;6.544;2023-03-14T11:42:59;6.37;;;1.20;;
14116;SDS011;7137;51.436;6.544;2023-03-14T11:46:05;4.40;;;0.90;;
14116;SDS011;7137;51.436;6.544;2023-03-14T11:49:13;5.67;;;1.00;;
14116;SDS011;7137;51.436;6.544;2023-03-14T11:52:22;6.33;;;1.10;;
14116;SDS011;7137;51.436;6.544;2023-03-14T11:55:32;7.63;;;1.10;;
14116;SDS011;7137;51.436;6.544;2023-03-14T11:58:35;4.67;;;0.97;;
14116;SDS011;7137;51.436;6.544;2023-03-14T12:01:49;5.37;;;1.00;;
14116;SDS011;7137;51.436;6.544;2023-03-14T12:05:14;6.63;;;1.07;;
14116;SDS011;7137;51.436;6.544;2023-03-14T12:08:39;7.00;;;1.17;;
14116;SDS011;7137;51.436;6.544;2023-03-14T12:11:46;5.07;;;1.23;;
14116;SDS011;7137;51.436;6.544;2023-03-14T12:14:53;3.77;;;0.90;;
14116;SDS011;7137;51.436;6.544;2023-03-14T12:17:56;10.27;;;1.40;;
14116;SDS011;7137;51.436;6.544;2023-03-14T12:20:58;5.20;;;1.20;;
14116;SDS011;7137;51.436;6.544;2023-03-14T12:24:02;5.27;;;0.93;;
14116;SDS011;7137;51.436;6.544;2023-03-14T12:27:05;5.20;;;0.97;;
14116;SDS011;7137;51.436;6.544;2023-03-14T12:30:15;7.10;;;1.67;;
14116;SDS011;7137;51.436;6.544;2023-03-14T12:40:24;12.17;;;1.90;;
14116;SDS011;7137;51.436;6.544;2023-03-14T12:43:33;12.83;;;2.10;;
14116;SDS011;7137;51.436;6.544;2023-03-14T12:46:37;6.87;;;1.47;;
14116;SDS011;7137;51.436;6.544;2023-03-14T12:49:38;12.80;;;2.20;;
14116;SDS011;7137;51.436;6.544;2023-03-14T12:52:41;9.47;;;2.10;;
14116;SDS011;7137;51.436;6.544;2023-03-14T12:55:54;13.57;;;2.37;;
14116;SDS011;7137;51.436;6.544;2023-03-14T12:59:13;11.27;;;2.20;;
14116;SDS011;7137;51.436;6.544;2023-03-14T13:02:29;13.00;;;2.37;;
14116;SDS011;7137;51.436;6.544;2023-03-14T13:05:51;10.83;;;2.13;;
14116;SDS011;7137;51.436;6.544;2023-03-14T13:08:54;11.70;;;2.30;;
14116;SDS011;7137;51.436;6.544;2023-03-14T13:12:00;12.33;;;2.40;;
14116;SDS011;7137;51.436;6.544;2023-03-14T13:15:12;11.50;;;2.20;;
14116;SDS011;7137;51.436;6.544;2023-03-14T13:18:22;12.13;;;2.50;;
14116;SDS011;7137;51.436;6.544;2023-03-14T13:21:28;11.67;;;2.37;;
14116;SDS011;7137;51.436;6.544;2023-03-14T13:24:36;11.70;;;2.03;;
14116;SDS011;7137;51.436;6.544;2023-03-14T13:27:38;13.00;;;2.47;;
14116;SDS011;7137;51.436;6.544;2023-03-14T13:30:45;9.43;;;2.00;;
14116;SDS011;7137;51.436;6.544;2023-03-14T13:33:56;11.23;;;2.00;;
14116;SDS011;7137;51.436;6.544;2023-03-14T13:36:58;14.87;;;2.67;;
14116;SDS011;7137;51.436;6.544;2023-03-14T13:40:00;14.73;;;2.63;;
14116;SDS011;7137;51.436;6.544;2023-03-14T13:43:04;11.20;;;2.40;;
14116;SDS011;7137;51.436;6.544;2023-03-14T13:46:14;9.77;;;1.83;;
14116;SDS011;7137;51.436;6.544;2023-03-14T13:49:19;10.67;;;2.03;;
14116;SDS011;7137;51.436;6.544;2023-03-14T13:52:28;9.87;;;1.93;;
14116;SDS011;7137;51.436;6.544;2023-03-14T13:55:30;11.33;;;2.40;;
14116;SDS011;7137;51.436;6.544;2023-03-14T13:58:32;10.70;;;2.20;;
14116;SDS011;7137;51.436;6.544;2023-03-14T14:01:46;10.40;;;2.10;;
14116;SDS011;7137;51.436;6.544;2023-03-14T14:04:48;12.80;;;2.17;;
14116;SDS011;7137;51.436;6.544;2023-03-14T14:07:50;10.50;;;2.07;;
14116;SDS011;7137;51.436;6.544;2023-03-14T14:10:53;8.10;;;2.33;;
14116;SDS011;7137;51.436;6.544;2023-03-14T14:13:59;7.40;;;1.40;;
14116;SDS011;7137;51.436;6.544;2023-03-14T14:17:03;7.03;;;1.67;;
14116;SDS011;7137;51.436;6.544;2023-03-14T14:20:12;7.40;;;1.70;;
14116;SDS011;7137;51.436;6.544;2023-03-14T14:23:21;9.83;;;1.67;;
14116;SDS011;7137;51.436;6.544;2023-03-14T14:26:27;7.77;;;1.43;;
14116;SDS011;7137;51.436;6.544;2023-03-14T14:29:30;7.27;;;2.00;;
14116;SDS011;7137;51.436;6.544;2023-03-14T14:32:40;4.73;;;1.30;;
14116;SDS011;7137;51.436;6.544;2023-03-14T14:35:41;7.13;;;1.80;;
14116;SDS011;7137;51.436;6.544;2023-03-14T14:38:51;7.17;;;1.40;;
14116;SDS011;7137;51.436;6.544;2023-03-14T14:41:53;6.17;;;1.20;;
14116;SDS011;7137;51.436;6.544;2023-03-14T14:44:56;9.07;;;1.43;;
14116;SDS011;7137;51.436;6.544;2023-03-14T14:48:02;5.10;;;1.43;;
14116;SDS011;7137;51.436;6.544;2023-03-14T14:51:06;8.30;;;1.70;;
14116;SDS011;7137;51.436;6.544;2023-03-14T14:54:13;6.67;;;1.53;;
14116;SDS011;7137;51.436;6.544;2023-03-14T14:57:17;9.00;;;2.10;;
14116;SDS011;7137;51.436;6.544;2023-03-14T15:00:21;8.03;;;1.20;;
14116;SDS011;7137;51.436;6.544;2023-03-14T15:03:27;8.20;;;1.40;;
14116;SDS011;7137;51.436;6.544;2023-03-14T15:06:31;6.40;;;1.43;;
14116;SDS011;7137;51.436;6.544;2023-03-14T15:09:32;5.77;;;1.70;;
14116;SDS011;7137;51.436;6.544;2023-03-14T15:12:34;13.07;;;2.10;;
14116;SDS011;7137;51.436;6.544;2023-03-14T15:15:35;9.40;;;1.60;;
14116;SDS011;7137;51.436;6.544;2023-03-14T15:18:39;7.67;;;1.70;;
14116;SDS011;7137;51.436;6.544;2023-03-14T15:21:42;8.87;;;1.60;;
14116;SDS011;7137;51.436;6.544;2023-03-14T15:24:44;6.50;;;1.70;;
14116;SDS011;7137;51.436;6.544;2023-03-14T15:27:46;8.30;;;1.70;;
14116;SDS011;7137;51.436;6.544;2023-03-14T15:30:47;7.43;;;1.33;;
14116;SDS011;7137;51.436;6.544;2023-03-14T15:33:51;6.70;;;1.60;;
14116;SDS011;7137;51.436;6.544;2023-03-14T15:36:52;6.60;;;1.40;;
14116;SDS011;7137;51.436;6.544;2023-03-14T15:39:54;6.40;;;1.50;;
14116;SDS011;7137;51.436;6.544;2023-03-14T15:42:57;5.93;;;1.17;;
14116;SDS011;7137;51.436;6.544;2023-03-14T15:45:59;9.33;;;1.50;;
14116;SDS011;7137;51.436;6.544;2023-03-14T15:49:02;5.47;;;1.37;;
14116;SDS011;7137;51.436;6.544;2023-03-14T15:52:04;7.60;;;1.60;;
14116;SDS011;7137;51.436;6.544;2023-03-14T15:55:07;7.20;;;1.33;;
14116;SDS011;7137;51.436;6.544;2023-03-14T15:58:10;11.90;;;3.10;;
14116;SDS011;7137;51.436;6.544;2023-03-14T16:01:16;10.20;;;3.80;;
14116;SDS011;7137;51.436;6.544;2023-03-14T16:04:19;9.97;;;3.33;;
14116;SDS011;7137;51.436;6.544;2023-03-14T16:07:21;5.63;;;1.73;;
14116;SDS011;7137;51.436;6.544;2023-03-14T16:10:23;6.13;;;1.60;;
14116;SDS011;7137;51.436;6.544;2023-03-14T16:13:24;6.53;;;1.37;;
14116;SDS011;7137;51.436;6.544;2023-03-14T16:16:27;7.40;;;1.60;;
14116;SDS011;7137;51.436;6.544;2023-03-14T16:19:30;6.57;;;1.10;;
14116;SDS011;7137;51.436;6.544;2023-03-14T16:22:33;4.77;;;1.10;;
14116;SDS011;7137;51.436;6.544;2023-03-14T16:25:35;2.97;;;0.97;;
14116;SDS011;7137;51.436;6.544;2023-03-14T16:28:37;6.60;;;1.57;;
14116;SDS011;7137;51.436;6.544;2023-03-14T16:31:39;7.83;;;1.60;;
14116;SDS011;7137;51.436;6.544;2023-03-14T16:34:44;6.07;;;1.37;;
14116;SDS011;7137;51.436;6.544;2023-03-14T16:37:46;8.43;;;1.43;;
14116;SDS011;7137;51.436;6.544;2023-03-14T16:40:54;5.97;;;1.30;;
14116;SDS011;7137;51.436;6.544;2023-03-14T16:43:56;7.30;;;1.63;;
14116;SDS011;7137;51.436;6.544;2023-03-14T16:46:58;7.73;;;1.43;;
14116;SDS011;7137;51.436;6.544;2023-03-14T16:50:01;8.67;;;1.80;;
14116;SDS011;7137;51.436;6.544;2023-03-14T16:53:02;6.63;;;1.50;;
14116;SDS011;7137;51.436;6.544;2023-03-14T16:56:04;5.03;;;1.40;;
14116;SDS011;7137;51.436;6.544;2023-03-14T16:59:06;6.53;;;1.93;;
14116;SDS011;7137;51.436;6.544;2023-03-14T17:02:09;4.87;;;1.37;;
14116;SDS011;7137;51.436;6.544;2023-03-14T17:05:12;8.17;;;1.53;;
14116;SDS011;7137;51.436;6.544;2023-03-14T17:08:14;6.87;;;1.40;;
14116;SDS011;7137;51.436;6.544;2023-03-14T17:11:16;6.80;;;1.40;;
14116;SDS011;7137;51.436;6.544;2023-03-14T17:14:18;5.37;;;1.27;;
14116;SDS011;7137;51.436;6.544;2023-03-14T17:17:19;7.67;;;1.50;;
14116;SDS011;7137;51.436;6.544;2023-03-14T17:20:22;6.30;;;1.33;;
14116;SDS011;7137;51.436;6.544;2023-03-14T17:23:25;6.90;;;1.87;;
14116;SDS011;7137;51.436;6.544;2023-03-14T17:26:28;6.93;;;1.40;;
14116;SDS011;7137;51.436;6.544;2023-03-14T17:29:30;8.17;;;1.67;;
14116;SDS011;7137;51.436;6.544;2023-03-14T17:32:32;6.53;;;1.30;;
14116;SDS011;7137;51.436;6.544;2023-03-14T17:35:35;8.40;;;1.73;;
14116;SDS011;7137;51.436;6.544;2023-03-14T17:38:37;5.70;;;1.53;;
14116;SDS011;7137;51.436;6.544;2023-03-14T17:41:39;8.67;;;1.70;;
14116;SDS011;7137;51.436;6.544;2023-03-14T17:44:41;7.60;;;1.80;;
14116;SDS011;7137;51.436;6.544;2023-03-14T17:47:42;8.57;;;1.60;;
14116;SDS011;7137;51.436;6.544;2023-03-14T17:50:46;7.63;;;1.60;;
14116;SDS011;7137;51.436;6.544;2023-03-14T17:53:47;7.70;;;1.83;;
14116;SDS011;7137;51.436;6.544;2023-03-14T17:56:49;7.60;;;1.70;;
14116;SDS011;7137;51.436;6.544;2023-03-14T17:59:51;7.57;;;1.60;;
14116;SDS011;7137;51.436;6.544;2023-03-14T18:02:53;8.97;;;1.60;;
14116;SDS011;7137;51.436;6.544;2023-03-14T18:05:56;7.03;;;1.80;;
14116;SDS011;7137;51.436;6.544;2023-03-14T18:08:58;7.13;;;1.47;;
14116;SDS011;7137;51.436;6.544;2023-03-14T18:12:00;7.77;;;2.00;;
14116;SDS011;7137;51.436;6.544;2023-03-14T18:15:02;8.03;;;1.47;;
14116;SDS011;7137;51.436;6.544;2023-03-14T18:18:04;7.33;;;1.83;;
14116;SDS011;7137;51.436;6.544;2023-03-14T18:21:07;6.87;;;1.63;;
14116;SDS011;7137;51.436;6.544;2023-03-14T18:24:08;6.20;;;1.47;;
14116;SDS011;7137;51.436;6.544;2023-03-14T18:27:10;6.80;;;1.80;;
14116;SDS011;7137;51.436;6.544;2023-03-14T18:30:13;8.50;;;1.67;;
14116;SDS011;7137;51.436;6.544;2023-03-14T18:33:16;7.83;;;1.60;;
14116;SDS011;7137;51.436;6.544;2023-03-14T18:36:19;6.63;;;1.30;;
14116;SDS011;7137;51.436;6.544;2023-03-14T18:39:21;7.57;;;1.80;;
14116;SDS011;7137;51.436;6.544;2023-03-14T18:42:25;6.70;;;1.67;;
14116;SDS011;7137;51.436;6.544;2023-03-14T18:45:26;5.87;;;1.40;;
14116;SDS011;7137;51.436;6.544;2023-03-14T18:48:28;5.30;;;1.40;;
14116;SDS011;7137;51.436;6.544;2023-03-14T18:51:31;6.80;;;1.30;;